createdAt,value
2018-08-31T00:01:30.466Z,90.20
2018-08-31T00:04:36.793Z,90.30
2018-08-31T00:07:16.541Z,90.00
2018-08-31T00:10:00.993Z,90.10
2018-08-31T00:12:36.466Z,90.10
2018-08-31T00:15:05.410Z,90.20
2018-08-31T00:17:33.877Z,90.20
2018-08-31T00:20:02.505Z,90.10
2018-08-31T00:22:30.917Z,90.10
2018-08-31T00:25:10.721Z,90.40
2018-08-31T00:27:50.420Z,90.20
2018-08-31T00:30:30.128Z,90.40
2018-08-31T00:34:09.369Z,90.30
2018-08-31T00:36:46.445Z,90.20
2018-08-31T00:39:39.812Z,90.00
2018-08-31T00:42:20.305Z,89.60
2018-08-31T00:45:16.542Z,89.60
2018-08-31T00:47:45.010Z,89.30
2018-08-31T00:50:13.440Z,88.40
2018-08-31T00:52:41.980Z,88.50
2018-08-31T00:55:10.433Z,88.70
2018-08-31T00:57:38.870Z,88.80
2018-08-31T01:00:07.290Z,88.20
2018-08-31T01:02:35.965Z,88.40
2018-08-31T01:05:04.378Z,88.60
2018-08-31T01:07:32.812Z,88.50
2018-08-31T01:10:01.248Z,88.50
2018-08-31T01:12:29.701Z,88.90
2018-08-31T01:14:58.122Z,89.10
2018-08-31T01:17:26.586Z,89.20
2018-08-31T01:19:55.018Z,90.10
2018-08-31T01:22:23.479Z,89.60
2018-08-31T01:24:51.963Z,89.60
2018-08-31T01:27:20.398Z,89.60
2018-08-31T01:29:48.840Z,89.70
2018-08-31T01:32:17.601Z,90.00
2018-08-31T01:34:46.029Z,90.10
2018-08-31T01:37:14.457Z,90.00
2018-08-31T01:39:42.932Z,90.00
2018-08-31T01:42:11.614Z,90.00
2018-08-31T01:44:40.325Z,90.00
2018-08-31T01:47:09.031Z,89.90
2018-08-31T01:49:37.593Z,89.60
2018-08-31T01:52:06.075Z,89.90
2018-08-31T01:54:34.543Z,90.00
2018-08-31T01:57:03.018Z,89.90
2018-08-31T01:59:31.467Z,89.90
2018-08-31T02:01:59.930Z,89.90
2018-08-31T02:04:28.400Z,90.00
2018-08-31T02:06:56.978Z,89.70
2018-08-31T02:09:25.527Z,90.00
2018-08-31T02:11:54.036Z,90.10
2018-08-31T02:14:22.917Z,90.10
2018-08-31T02:16:51.401Z,90.10
2018-08-31T02:19:19.857Z,90.20
2018-08-31T02:21:48.315Z,90.20
2018-08-31T02:24:16.866Z,90.20
2018-08-31T02:26:45.337Z,90.30
2018-08-31T02:29:13.857Z,90.50
2018-08-31T02:31:42.359Z,90.50
2018-08-31T02:34:10.803Z,90.40
2018-08-31T02:36:39.290Z,90.90
2018-08-31T02:39:08.167Z,90.50
2018-08-31T02:41:36.642Z,90.40
2018-08-31T02:44:05.142Z,90.30
2018-08-31T02:46:33.958Z,90.30
2018-08-31T02:49:02.468Z,90.40
2018-08-31T02:51:30.911Z,90.50
2018-08-31T02:53:59.382Z,90.30
2018-08-31T02:56:27.827Z,90.20
2018-08-31T02:58:56.280Z,90.30
2018-08-31T03:01:24.781Z,90.30
2018-08-31T03:03:53.329Z,90.40
2018-08-31T03:06:22.031Z,90.30
2018-08-31T03:08:50.862Z,90.40
2018-08-31T03:11:19.640Z,90.40
2018-08-31T03:13:48.094Z,90.40
2018-08-31T03:16:16.593Z,90.10
2018-08-31T03:18:45.075Z,90.30
2018-08-31T03:21:13.563Z,90.40
2018-08-31T03:23:42.048Z,90.30
2018-08-31T03:26:10.521Z,90.30
2018-08-31T03:28:39.003Z,90.30
2018-08-31T03:31:07.484Z,90.10
2018-08-31T03:33:35.958Z,90.00
2018-08-31T03:36:04.477Z,90.20
2018-08-31T03:38:32.970Z,90.00
2018-08-31T03:41:01.411Z,90.10
2018-08-31T03:43:29.868Z,90.40
2018-08-31T03:45:58.368Z,90.20
2018-08-31T03:48:26.811Z,90.30
2018-08-31T03:50:55.259Z,90.30
2018-08-31T03:53:23.978Z,90.30
2018-08-31T03:55:52.432Z,90.60
2018-08-31T03:58:20.901Z,90.30
2018-08-31T04:00:49.368Z,90.20
2018-08-31T04:03:17.947Z,90.10
2018-08-31T04:05:46.696Z,90.20
2018-08-31T04:08:15.217Z,90.40
2018-08-31T04:10:43.679Z,90.40
2018-08-31T04:13:12.162Z,90.20
2018-08-31T04:15:40.681Z,90.30
2018-08-31T04:18:09.124Z,90.40
2018-08-31T04:20:37.607Z,90.60
2018-08-31T04:23:06.279Z,90.10
2018-08-31T04:25:34.728Z,90.20
2018-08-31T04:28:03.202Z,90.20
2018-08-31T04:30:31.694Z,90.00
2018-08-31T04:33:00.161Z,89.80
2018-08-31T04:35:28.636Z,90.00
2018-08-31T04:37:57.096Z,90.00
2018-08-31T04:40:25.604Z,90.00
2018-08-31T04:42:54.095Z,90.00
2018-08-31T04:45:22.570Z,90.30
2018-08-31T04:47:51.039Z,90.30
2018-08-31T04:50:19.559Z,90.20
2018-08-31T04:52:48.018Z,90.40
2018-08-31T04:55:16.482Z,90.50
2018-08-31T04:57:44.922Z,90.50
2018-08-31T05:00:13.724Z,90.30
2018-08-31T05:02:42.176Z,90.30
2018-08-31T05:05:10.635Z,90.30
2018-08-31T05:07:39.115Z,90.50
2018-08-31T05:10:07.593Z,90.40
2018-08-31T05:12:36.155Z,90.40
2018-08-31T05:15:05.150Z,90.30
2018-08-31T05:17:33.626Z,90.30
2018-08-31T05:20:02.097Z,90.40
2018-08-31T05:22:30.590Z,90.30
2018-08-31T05:24:59.056Z,90.10
2018-08-31T05:27:27.526Z,90.10
2018-08-31T05:29:56.024Z,90.10
2018-08-31T05:32:24.482Z,89.90
2018-08-31T05:34:53.012Z,90.00
2018-08-31T05:37:21.460Z,89.40
2018-08-31T05:39:49.931Z,89.50
2018-08-31T05:42:18.397Z,88.90
2018-08-31T05:44:46.866Z,89.40
2018-08-31T05:47:15.600Z,88.90
2018-08-31T05:49:44.081Z,89.20
2018-08-31T05:52:12.567Z,89.10
2018-08-31T05:54:41.296Z,88.80
2018-08-31T05:57:09.736Z,88.70
2018-08-31T05:59:38.223Z,88.80
2018-08-31T06:02:06.953Z,88.80
2018-08-31T06:04:35.379Z,88.30
2018-08-31T06:07:03.886Z,88.30
2018-08-31T06:09:32.332Z,88.00
2018-08-31T06:12:00.885Z,87.50
2018-08-31T06:14:29.326Z,87.80
2018-08-31T06:16:57.794Z,87.00
2018-08-31T06:19:26.253Z,87.20
2018-08-31T06:21:54.747Z,86.60
2018-08-31T06:24:23.196Z,86.60
2018-08-31T06:26:51.662Z,86.60
2018-08-31T06:29:20.183Z,86.40
2018-08-31T06:31:48.636Z,86.40
2018-08-31T06:34:17.492Z,85.90
2018-08-31T06:36:45.995Z,86.00
2018-08-31T06:39:14.466Z,86.20
2018-08-31T06:41:42.927Z,86.20
2018-08-31T06:44:11.453Z,85.70
2018-08-31T06:46:39.952Z,84.70
2018-08-31T06:49:08.456Z,84.90
2018-08-31T06:51:36.943Z,84.80
2018-08-31T06:54:05.522Z,84.90
2018-08-31T06:56:34.004Z,84.30
2018-08-31T06:59:02.604Z,83.90
2018-08-31T07:01:31.091Z,83.70
2018-08-31T07:03:59.784Z,83.80
2018-08-31T07:06:28.270Z,83.60
2018-08-31T07:08:56.732Z,83.60
2018-08-31T07:11:25.192Z,82.90
2018-08-31T07:13:54.222Z,82.70
2018-08-31T07:16:22.671Z,82.80
2018-08-31T07:18:51.114Z,82.90
2018-08-31T07:21:19.642Z,82.90
2018-08-31T07:23:48.083Z,83.10
2018-08-31T07:26:16.603Z,82.50
2018-08-31T07:28:45.086Z,83.00
2018-08-31T07:31:13.535Z,82.80
2018-08-31T07:33:42.253Z,81.90
2018-08-31T07:36:10.781Z,81.50
2018-08-31T07:38:39.196Z,81.60
2018-08-31T07:41:07.902Z,82.10
2018-08-31T07:43:36.380Z,80.90
2018-08-31T07:46:05.315Z,81.20
2018-08-31T07:48:33.790Z,81.60
2018-08-31T07:51:02.317Z,82.70
2018-08-31T07:53:31.084Z,81.60
2018-08-31T07:55:59.544Z,80.90
2018-08-31T07:58:28.110Z,80.60
2018-08-31T08:00:56.570Z,79.80
2018-08-31T08:03:25.179Z,79.80
2018-08-31T08:05:53.662Z,80.50
2018-08-31T08:08:22.127Z,80.80
2018-08-31T08:10:50.599Z,80.60
2018-08-31T08:13:19.082Z,78.80
2018-08-31T08:15:47.546Z,78.60
2018-08-31T08:18:15.999Z,77.90
2018-08-31T08:20:44.496Z,76.10
2018-08-31T08:23:12.995Z,76.00
2018-08-31T08:25:41.448Z,76.90
2018-08-31T08:28:09.961Z,76.20
2018-08-31T08:30:38.408Z,76.00
2018-08-31T08:33:06.882Z,77.00
2018-08-31T08:35:35.376Z,77.10
2018-08-31T08:38:03.836Z,76.10
2018-08-31T08:40:32.315Z,76.20
2018-08-31T08:43:01.037Z,76.00
2018-08-31T08:45:29.906Z,74.30
2018-08-31T08:47:58.398Z,74.50
2018-08-31T08:50:26.887Z,73.00
2018-08-31T08:52:55.363Z,72.10
2018-08-31T08:55:23.811Z,72.00
2018-08-31T08:57:52.305Z,72.80
2018-08-31T09:00:20.764Z,72.40
2018-08-31T09:02:49.216Z,71.50
2018-08-31T09:05:17.723Z,69.40
2018-08-31T09:07:46.170Z,70.00
2018-08-31T09:10:14.629Z,69.40
2018-08-31T09:12:43.171Z,69.00
2018-08-31T09:15:12.210Z,67.10
2018-08-31T09:17:40.686Z,66.70
2018-08-31T09:20:09.214Z,67.50
2018-08-31T09:22:37.855Z,68.80
2018-08-31T09:25:06.628Z,69.10
2018-08-31T09:27:35.409Z,68.80
2018-08-31T09:30:04.326Z,67.90
2018-08-31T09:32:33.952Z,67.80
2018-08-31T09:35:02.593Z,67.20
2018-08-31T09:37:31.079Z,67.00
2018-08-31T09:39:59.559Z,66.30
2018-08-31T09:42:28.391Z,65.80
2018-08-31T09:44:56.863Z,66.20
2018-08-31T09:47:25.342Z,66.20
2018-08-31T09:49:53.803Z,64.80
2018-08-31T09:52:22.270Z,66.30
2018-08-31T09:54:50.735Z,66.30
2018-08-31T09:57:19.289Z,65.80
2018-08-31T09:59:47.717Z,66.90
2018-08-31T10:02:21.522Z,66.60
2018-08-31T10:04:50.258Z,67.70
2018-08-31T10:07:18.711Z,65.70
2018-08-31T10:09:47.192Z,67.20
2018-08-31T10:12:15.635Z,65.50
2018-08-31T10:14:44.083Z,65.70
2018-08-31T10:17:12.547Z,66.40
2018-08-31T10:19:41.009Z,66.40
2018-08-31T10:22:09.451Z,64.70
2018-08-31T10:24:37.939Z,64.70
2018-08-31T10:27:06.710Z,64.90
2018-08-31T10:29:35.161Z,64.10
2018-08-31T10:32:03.837Z,62.70
2018-08-31T10:34:32.303Z,63.20
2018-08-31T10:37:00.766Z,61.30
2018-08-31T10:39:29.336Z,60.90
2018-08-31T10:41:57.811Z,59.30
2018-08-31T10:44:26.252Z,60.10
2018-08-31T10:46:54.728Z,59.70
2018-08-31T10:49:23.176Z,59.30
2018-08-31T10:51:51.702Z,59.40
2018-08-31T10:54:20.200Z,56.70
2018-08-31T10:56:48.714Z,57.50
2018-08-31T10:59:17.165Z,55.70
2018-08-31T11:01:45.677Z,56.60
2018-08-31T11:04:14.150Z,57.50
2018-08-31T11:06:42.613Z,58.30
2018-08-31T11:09:11.075Z,56.80
2018-08-31T11:11:39.552Z,56.20
2018-08-31T11:14:08.324Z,56.50
2018-08-31T11:16:36.807Z,56.50
2018-08-31T11:19:05.252Z,56.50
2018-08-31T11:21:33.733Z,56.00
2018-08-31T11:24:02.238Z,55.80
2018-08-31T11:26:30.687Z,55.30
2018-08-31T11:28:59.215Z,53.20
2018-08-31T11:31:27.679Z,55.00
2018-08-31T11:33:56.145Z,54.10
2018-08-31T11:36:24.871Z,54.30
2018-08-31T11:38:53.338Z,53.70
2018-08-31T11:41:21.823Z,52.10
2018-08-31T11:43:50.836Z,51.70
2018-08-31T11:46:19.328Z,50.40
2018-08-31T11:48:47.788Z,51.40
2018-08-31T11:51:16.288Z,49.50
2018-08-31T11:53:44.866Z,49.80
2018-08-31T11:56:14.203Z,48.50
2018-08-31T11:58:42.708Z,49.00
2018-08-31T12:01:11.191Z,50.70
2018-08-31T12:03:39.811Z,48.50
2018-08-31T12:06:08.287Z,49.20
2018-08-31T12:08:36.778Z,50.20
2018-08-31T12:11:05.431Z,49.80
2018-08-31T12:13:33.938Z,50.20
2018-08-31T12:16:02.435Z,49.00
2018-08-31T12:18:30.863Z,49.00
2018-08-31T12:20:59.302Z,49.00
2018-08-31T12:23:27.775Z,48.70
2018-08-31T12:25:56.265Z,46.00
2018-08-31T12:28:24.769Z,47.20
2018-08-31T12:30:53.259Z,47.80
2018-08-31T12:33:21.693Z,45.90
2018-08-31T12:35:50.162Z,44.50
2018-08-31T12:38:18.626Z,44.40
2018-08-31T12:40:47.096Z,45.70
2018-08-31T12:43:15.553Z,43.10
2018-08-31T12:45:44.203Z,42.90
2018-08-31T12:48:12.661Z,43.90
2018-08-31T12:50:41.414Z,43.80
2018-08-31T12:53:09.914Z,43.10
2018-08-31T12:55:38.371Z,42.70
2018-08-31T12:58:06.837Z,45.00
2018-08-31T13:00:35.333Z,46.90
2018-08-31T13:03:04.088Z,47.00
2018-08-31T13:05:32.559Z,48.20
2018-08-31T13:08:01.059Z,46.50
2018-08-31T13:10:29.513Z,46.60
2018-08-31T13:12:57.972Z,45.50
2018-08-31T13:15:26.461Z,44.50
2018-08-31T13:17:54.907Z,43.90
2018-08-31T13:20:23.402Z,43.90
2018-08-31T13:22:51.961Z,44.10
2018-08-31T13:25:20.476Z,45.40
2018-08-31T13:27:48.904Z,44.40
2018-08-31T13:30:17.410Z,46.30
2018-08-31T13:32:45.874Z,47.10
2018-08-31T13:35:14.339Z,45.90
2018-08-31T13:37:42.846Z,45.70
2018-08-31T13:40:11.306Z,44.50
2018-08-31T13:42:39.746Z,42.40
2018-08-31T13:45:08.284Z,42.40
2018-08-31T13:47:36.744Z,42.90
2018-08-31T13:50:05.321Z,42.80
2018-08-31T13:52:33.838Z,44.50
2018-08-31T13:55:02.275Z,45.60
2018-08-31T13:57:30.758Z,46.20
2018-08-31T13:59:59.263Z,44.20
2018-08-31T14:02:27.787Z,44.60
2018-08-31T14:04:56.287Z,46.10
2018-08-31T14:07:24.774Z,46.20
2018-08-31T14:09:53.253Z,45.30
2018-08-31T14:12:21.733Z,44.10
2018-08-31T14:14:50.213Z,46.00
2018-08-31T14:17:18.686Z,45.30
2018-08-31T14:19:47.147Z,43.30
2018-08-31T14:22:15.654Z,43.50
2018-08-31T14:24:44.325Z,42.10
2018-08-31T14:27:13.084Z,44.20
2018-08-31T14:29:41.667Z,44.40
2018-08-31T14:32:10.058Z,44.80
2018-08-31T14:34:38.541Z,43.80
2018-08-31T14:37:07.023Z,43.80
2018-08-31T14:39:35.483Z,43.00
2018-08-31T14:42:03.979Z,45.10
2018-08-31T14:44:32.509Z,43.80
2018-08-31T14:47:03.465Z,43.50
2018-08-31T14:49:32.161Z,43.70
2018-08-31T14:52:00.723Z,44.50
2018-08-31T14:54:29.242Z,46.00
2018-08-31T14:56:57.718Z,44.00
2018-08-31T14:59:26.277Z,44.40
2018-08-31T15:01:54.784Z,44.50
2018-08-31T15:04:23.322Z,43.60
2018-08-31T15:06:51.776Z,43.70
2018-08-31T15:09:20.381Z,45.30
2018-08-31T15:11:48.909Z,45.40
2018-08-31T15:14:17.384Z,44.20
2018-08-31T15:16:45.894Z,45.80
2018-08-31T15:19:14.402Z,43.20
2018-08-31T15:21:42.934Z,42.30
2018-08-31T15:24:11.426Z,42.60
2018-08-31T15:26:40.241Z,43.60
2018-08-31T15:29:08.794Z,42.80
2018-08-31T15:31:37.289Z,44.50
2018-08-31T15:34:05.843Z,45.10
2018-08-31T15:36:34.316Z,44.50
2018-08-31T15:39:02.894Z,44.20
2018-08-31T15:41:31.388Z,44.00
2018-08-31T15:44:00.205Z,43.10
2018-08-31T15:46:28.701Z,43.50
2018-08-31T15:48:57.218Z,45.90
2018-08-31T15:51:25.732Z,46.10
2018-08-31T15:53:54.760Z,47.60
2018-08-31T15:56:23.243Z,48.20
2018-08-31T15:58:52.311Z,48.50
2018-08-31T16:01:21.027Z,48.20
2018-08-31T16:03:49.529Z,48.90
2018-08-31T16:06:18.042Z,49.80
2018-08-31T16:08:46.524Z,49.80
2018-08-31T16:11:15.063Z,51.20
2018-08-31T16:13:43.562Z,52.60
2018-08-31T16:16:12.405Z,52.40
2018-08-31T16:18:40.923Z,51.80
2018-08-31T16:21:09.418Z,51.70
2018-08-31T16:23:37.884Z,52.60
2018-08-31T16:26:06.555Z,52.20
2018-08-31T16:28:35.031Z,52.70
2018-08-31T16:31:03.551Z,51.60
2018-08-31T16:33:32.094Z,52.20
2018-08-31T16:36:00.865Z,53.30
2018-08-31T16:38:29.417Z,54.10
2018-08-31T16:40:58.338Z,54.10
2018-08-31T16:43:26.815Z,54.10
2018-08-31T16:45:55.340Z,53.70
2018-08-31T16:48:23.832Z,54.50
2018-08-31T16:50:52.291Z,54.70
2018-08-31T16:53:20.781Z,54.90
2018-08-31T16:55:49.593Z,53.80
2018-08-31T16:58:18.080Z,53.60
2018-08-31T17:00:46.562Z,53.10
2018-08-31T17:03:15.069Z,51.40
2018-08-31T17:05:43.563Z,53.10
2018-08-31T17:08:12.079Z,53.10
2018-08-31T17:10:40.585Z,53.90
2018-08-31T17:13:09.066Z,55.50
2018-08-31T17:15:37.592Z,56.00
2018-08-31T17:18:06.084Z,56.00
2018-08-31T17:20:34.867Z,55.90
2018-08-31T17:23:03.366Z,56.20
2018-08-31T17:25:31.921Z,56.60
2018-08-31T17:28:05.714Z,57.00
2018-08-31T17:30:34.230Z,57.30
2018-08-31T17:33:07.995Z,57.50
2018-08-31T17:35:41.974Z,57.60
2018-08-31T17:38:10.463Z,58.10
2018-08-31T17:40:38.950Z,58.40
2018-08-31T17:43:07.495Z,58.90
2018-08-31T17:45:35.979Z,58.80
2018-08-31T17:48:04.488Z,59.00
2018-08-31T17:53:25.267Z,58.80
2018-08-31T17:55:53.774Z,59.30
2018-08-31T17:58:22.263Z,59.80
2018-08-31T18:00:50.794Z,60.00
2018-08-31T18:03:19.278Z,60.00
2018-08-31T18:05:47.767Z,59.90
2018-08-31T18:08:16.246Z,59.90
2018-08-31T18:10:44.723Z,59.80
2018-08-31T18:13:13.198Z,59.50
2018-08-31T18:15:41.725Z,59.30
2018-08-31T18:18:10.190Z,59.20
2018-08-31T18:20:38.651Z,59.30
2018-08-31T18:23:07.160Z,59.20
2018-08-31T18:25:35.635Z,59.50
2018-08-31T18:28:04.123Z,59.60
2018-08-31T18:30:32.604Z,59.40
2018-08-31T18:33:01.087Z,59.40
2018-08-31T18:35:29.650Z,59.90
2018-08-31T18:37:58.078Z,60.50
2018-08-31T18:40:26.565Z,60.90
2018-08-31T18:42:55.999Z,61.10
2018-08-31T18:45:24.770Z,61.30
2018-08-31T18:47:53.263Z,61.60
2018-08-31T18:50:21.761Z,61.70
2018-08-31T18:52:50.299Z,62.40
2018-08-31T18:55:18.799Z,62.90
2018-08-31T18:57:47.335Z,63.20
2018-08-31T19:00:15.974Z,63.10
2018-08-31T19:02:44.828Z,64.10
2018-08-31T19:05:13.815Z,64.40
2018-08-31T19:07:42.379Z,64.60
2018-08-31T19:10:10.803Z,64.90
2018-08-31T19:12:39.334Z,64.70
2018-08-31T19:15:07.881Z,64.20
2018-08-31T19:17:36.535Z,64.40
2018-08-31T19:20:06.835Z,63.90
2018-08-31T19:22:35.310Z,64.40
2018-08-31T19:25:03.890Z,63.60
2018-08-31T19:27:32.363Z,61.40
2018-08-31T19:30:00.859Z,62.80
2018-08-31T19:32:29.396Z,63.70
2018-08-31T19:34:57.871Z,65.50
2018-08-31T19:37:26.359Z,65.80
2018-08-31T19:39:54.867Z,65.90
2018-08-31T19:42:23.733Z,66.80
2018-08-31T19:44:52.242Z,67.50
2018-08-31T19:47:20.728Z,67.30
2018-08-31T19:49:49.296Z,67.90
2018-08-31T19:52:17.782Z,68.90
2018-08-31T19:54:46.264Z,68.80
2018-08-31T19:57:14.768Z,69.00
2018-08-31T19:59:43.256Z,67.20
2018-08-31T20:02:11.748Z,66.20
2018-08-31T20:04:40.211Z,67.00
2018-08-31T20:07:08.703Z,67.30
2018-08-31T20:09:37.235Z,67.20
2018-08-31T20:12:05.999Z,66.00
2018-08-31T20:14:34.544Z,66.20
2018-08-31T20:17:03.035Z,65.70
2018-08-31T20:19:31.507Z,65.60
2018-08-31T20:21:59.983Z,66.80
2018-08-31T20:24:28.476Z,67.50
2018-08-31T20:26:56.985Z,67.80
2018-08-31T20:29:25.500Z,68.40
2018-08-31T20:31:54.003Z,68.10
2018-08-31T20:34:22.492Z,68.10
2018-08-31T20:36:51.002Z,67.60
2018-08-31T20:39:19.803Z,67.20
2018-08-31T20:41:48.306Z,66.30
2018-08-31T20:44:16.790Z,68.00
2018-08-31T20:46:45.338Z,68.60
2018-08-31T20:49:13.818Z,69.10
2018-08-31T20:51:42.373Z,69.40
2018-08-31T20:54:10.886Z,68.50
2018-08-31T20:56:39.337Z,68.40
2018-08-31T20:59:07.854Z,69.20
2018-08-31T21:01:42.227Z,69.70
2018-08-31T21:04:10.821Z,70.40
2018-08-31T21:06:39.356Z,70.80
2018-08-31T21:09:09.641Z,70.60
2018-08-31T21:11:38.150Z,70.80
2018-08-31T21:14:06.634Z,71.00
2018-08-31T21:16:35.206Z,70.20
2018-08-31T21:19:03.706Z,69.80
2018-08-31T21:21:32.185Z,70.20
2018-08-31T21:24:00.668Z,71.10
2018-08-31T21:26:29.132Z,70.60
2018-08-31T21:28:57.767Z,70.00
2018-08-31T21:31:26.267Z,70.10
2018-08-31T21:33:54.752Z,71.00
2018-08-31T21:36:23.272Z,70.60
2018-08-31T21:38:51.937Z,71.40
2018-08-31T21:41:20.441Z,71.20
2018-08-31T21:43:48.904Z,70.80
2018-08-31T21:46:17.387Z,70.70
2018-08-31T21:48:45.910Z,70.60
2018-08-31T21:51:14.463Z,70.50
2018-08-31T21:53:42.948Z,71.30
2018-08-31T21:56:11.667Z,71.90
2018-08-31T21:58:40.146Z,72.40
2018-08-31T22:01:13.981Z,72.20
2018-08-31T22:03:42.436Z,71.40
2018-08-31T22:06:10.970Z,71.30
2018-08-31T22:08:39.524Z,71.50
2018-08-31T22:11:08.040Z,71.90
2018-08-31T22:13:36.542Z,71.30
2018-08-31T22:16:05.059Z,71.00
2018-08-31T22:18:33.787Z,72.30
2018-08-31T22:21:03.052Z,71.80
2018-08-31T22:23:31.531Z,71.50
2018-08-31T22:26:00.028Z,71.70
2018-08-31T22:28:28.582Z,72.10
2018-08-31T22:30:57.087Z,72.00
2018-08-31T22:33:25.554Z,71.60
2018-08-31T22:35:54.089Z,72.20
2018-08-31T22:38:22.559Z,72.20
2018-08-31T22:40:51.039Z,72.30
2018-08-31T22:43:22.396Z,72.90
2018-08-31T22:45:50.871Z,72.10
2018-08-31T22:48:19.326Z,71.80
2018-08-31T22:50:47.840Z,71.10
2018-08-31T22:53:16.318Z,71.50
2018-08-31T22:55:44.798Z,71.70
2018-08-31T22:58:13.270Z,72.00
2018-08-31T23:00:41.732Z,73.00
2018-08-31T23:03:10.218Z,73.00
2018-08-31T23:05:38.722Z,72.60
2018-08-31T23:08:07.194Z,72.10
2018-08-31T23:10:35.723Z,71.70
2018-08-31T23:13:04.253Z,72.10
2018-08-31T23:15:32.762Z,72.20
2018-08-31T23:18:01.452Z,71.90
2018-08-31T23:20:29.990Z,72.40
2018-08-31T23:24:03.578Z,72.60
2018-08-31T23:26:32.176Z,72.50
2018-08-31T23:29:00.672Z,73.00
2018-08-31T23:31:29.154Z,72.80
2018-08-31T23:33:57.639Z,72.40
2018-08-31T23:36:26.782Z,72.60
2018-08-31T23:38:55.263Z,72.20
2018-08-31T23:41:24.126Z,72.70
2018-08-31T23:43:52.983Z,72.40
2018-08-31T23:46:21.480Z,73.20
2018-08-31T23:48:49.967Z,73.40
2018-08-31T23:51:18.481Z,72.60
2018-08-31T23:53:46.981Z,72.50
2018-08-31T23:56:15.443Z,72.50
2018-08-31T23:58:43.936Z,72.20
